TimeEET,TemperatureF,Dew PointF,Humidity,Sea Level PressureIn,VisibilityMPH,Wind Direction,Wind SpeedMPH,Gust SpeedMPH,PrecipitationIn,Events,Conditions,WindDirDegrees,DateUTC
12:00 AM,59.0,55.4,88,30.04,-9999.0,Calm,Calm,-,N/A,,Clear,0,2013-02-26 22:00:00
1:00 AM,57.2,55.4,94,30.04,-9999.0,Calm,Calm,-,N/A,,Clear,0,2013-02-26 23:00:00
2:00 AM,55,52,85,30.04,4,Calm,Calm,,,,Mist,,2013-02-27 00:00:00
2:00 AM,55.4,51.8,88,30.04,3.7,Calm,Calm,-,N/A,,Unknown,0,2013-02-27 00:00:00
3:00 AM,55.4,51.8,88,30.04,3.7,Calm,Calm,-,N/A,,Unknown,0,2013-02-27 01:00:00
4:00 AM,53.6,51.8,94,30.04,3.7,Calm,Calm,-,N/A,,Unknown,0,2013-02-27 02:00:00
5:00 AM,50.0,48.2,94,30.01,3.7,Calm,Calm,-,N/A,,Unknown,0,2013-02-27 03:00:00
6:00 AM,50.0,48.2,94,30.01,3.7,Calm,Calm,-,N/A,,Unknown,0,2013-02-27 04:00:00
7:00 AM,48.2,46.4,93,30.04,1.9,Calm,Calm,-,N/A,,Mist,0,2013-02-27 05:00:00
8:00 AM,53.6,51.8,94,30.04,3.7,Calm,Calm,-,N/A,,Scattered Clouds,0,2013-02-27 06:00:00
9:00 AM,57.2,51.8,82,30.04,6.2,North,6.9,-,N/A,,Scattered Clouds,360,2013-02-27 07:00:00
10:00 AM,62.6,55.4,77,30.06,6.2,NW,9.2,-,N/A,,Scattered Clouds,320,2013-02-27 08:00:00
11:00 AM,64.4,55.4,73,30.06,6.2,NW,9.2,-,N/A,,Scattered Clouds,310,2013-02-27 09:00:00
12:00 PM,66.2,57.2,73,30.06,6.2,NW,9.2,-,N/A,,Scattered Clouds,310,2013-02-27 10:00:00
1:00 PM,68.0,59.0,73,30.04,6.2,North,11.5,-,N/A,,Scattered Clouds,350,2013-02-27 11:00:00
2:00 PM,66,57,66,30.05,6,NNW,11.5,,,,Partly Cloudy,330,2013-02-27 12:00:00
2:00 PM,66.2,57.2,73,30.04,6.2,NNW,11.5,-,N/A,,Scattered Clouds,330,2013-02-27 12:00:00
3:00 PM,66.2,59.0,78,30.04,6.2,NW,11.5,-,N/A,,Scattered Clouds,320,2013-02-27 13:00:00
4:00 PM,64.4,57.2,77,30.04,6.2,NNW,11.5,-,N/A,,Scattered Clouds,340,2013-02-27 14:00:00
7:00 PM,60.8,57.2,88,30.04,6.2,NNW,9.2,-,N/A,,Scattered Clouds,330,2013-02-27 17:00:00
8:00 PM,61,57,82,30.05,6,NNW,9.2,,,,Partly Cloudy,330,2013-02-27 18:00:00
8:00 PM,60.8,57.2,88,30.04,6.2,NNW,9.2,-,N/A,,Scattered Clouds,330,2013-02-27 18:00:00
9:00 PM,60.8,57.2,88,30.06,6.2,NW,6.9,-,N/A,,Partly Cloudy,320,2013-02-27 19:00:00
10:00 PM,60.8,57.2,88,30.06,6.2,NW,5.8,-,N/A,,Partly Cloudy,310,2013-02-27 20:00:00
11:00 PM,60.8,57.2,88,30.06,6.2,NNW,8.1,-,N/A,,Partly Cloudy,330,2013-02-27 21:00:00